Rachel Borchard — V7AT6 — position and weather

sailwx.info

Track history (hours):
 
Tides and Currents Weather Stations Pressure Air Temp Water Temp Dewpoint Dewpoint Depression Visibility Wind Speed Wind Dir Waves Ship Positions

Rachel Borchard

Last reported at 2018-Aug-21 01:59 UTC. Time now 2018-Aug-21 03:56 UTC.
Position N 35°58' W 006°15'.

Length 157 m; draft 8.9 m.

Type: Ship. MMSI: 538005064.

Date/timePositionNaut miles runAvg speedWind from/ knotsBaromVisibWave heightAir tempDewpointWater temp
2018-Aug-21 01:59N 35°58' W 006°15'815.5
2018-Aug-21 01:30N 35°58' W 006°06'1016.1
2018-Aug-21 00:53N 35°58' W 005°54'615.7
2018-Aug-21 00:30N 35°58' W 005°46'714.8
2018-Aug-21 00:04N 35°58' W 005°38'114.4
2018-Aug-21 00:01N 35°58' W 005°37'714.6
2018-Aug-20 23:30N 35°60' W 005°28'714.7
2018-Aug-20 23:03N 36°02' W 005°21'114.7
2018-Aug-20 23:00N 36°02' W 005°20'21814.9
2018-Aug-20 08:22N 37°15' W 001°03'516.1
2018-Aug-20 08:03N 37°18' W 000°58'115.5
2018-Aug-20 08:00N 37°18' W 000°58'816.1
2018-Aug-20 07:30N 37°24' W 000°50'716.3
2018-Aug-20 07:03N 37°28' W 000°43'116.1
2018-Aug-20 07:00N 37°29' W 000°42'816.0
2018-Aug-20 06:30N 37°34' W 000°34'715.7
2018-Aug-20 06:03N 37°40' W 000°29'116.1
2018-Aug-20 06:00N 37°40' W 000°28'815.7
2018-Aug-20 05:30N 37°47' W 000°23'715.9
2018-Aug-20 05:03N 37°53' W 000°18'115.4
2018-Aug-20 05:00N 37°53' W 000°17'415.4
2018-Aug-20 04:46N 37°56' W 000°15'415.4
2018-Aug-20 04:30N 38°00' W 000°12'2516.0
2018-Aug-20 02:56N 38°21' E 000°06'2815.8
2018-Aug-20 01:08N 38°46' E 000°23'7015.8
2018-Aug-19 20:44N 39°54' E 000°07'263 8.9
2018-Aug-18 15:02N 40°49' E 005°45'014.7
2018-Aug-18 15:01N 40°49' E 005°45'7414.5
2018-Aug-18 09:52N 41°04' E 007°22'615.0
2018-Aug-18 09:29N 41°05' E 007°29'715.0
2018-Aug-18 09:00N 41°07' E 007°39'1115.0
2018-Aug-18 08:15N 41°09' E 007°53'415.0
2018-Aug-18 07:59N 41°09' E 007°59'815.0
2018-Aug-18 07:28N 41°11' E 008°09'915.5
2018-Aug-18 06:52N 41°13' E 008°21'615.6
2018-Aug-18 06:30N 41°14' E 008°28'815.6
2018-Aug-18 06:00N 41°15' E 008°38'815.7
2018-Aug-18 05:30N 41°17' E 008°49'816.3
2018-Aug-18 05:01N 41°19' E 008°59'12015.0
2018-Aug-17 21:01N 41°01' E 011°36'014.6
2018-Aug-17 21:00N 41°00' E 011°36'7515.4
2018-Aug-17 16:05N 40°42' E 013°13'115.1
2018-Aug-17 15:59N 40°42' E 013°15'715.0
2018-Aug-17 15:30N 40°40' E 013°24'714.9
2018-Aug-17 15:01N 40°38' E 013°34'815.1
2018-Aug-17 14:30N 40°36' E 013°43'1515.5
2018-Aug-17 13:30N 40°32' E 014°03'815.1
2018-Aug-17 13:01N 40°31' E 014°13'815.2
2018-Aug-17 12:31N 40°32' E 014°23'815.1
2018-Aug-17 12:00N 40°35' E 014°32'814.9
2018-Aug-17 11:30N 40°37' E 014°42'20 1.3
2018-Aug-16 20:54N 40°18' E 014°45'614.3
2018-Aug-16 20:28N 40°11' E 014°46'714.6
2018-Aug-16 20:00N 40°05' E 014°50'7614.5
2018-Aug-16 14:45N 38°54' E 015°24'414.3
2018-Aug-16 14:29N 38°50' E 015°26'714.6
2018-Aug-16 14:00N 38°44' E 015°29'814.4
2018-Aug-16 13:27N 38°36' E 015°33'614.2
2018-Aug-16 13:00N 38°30' E 015°35'714.2
2018-Aug-16 12:30N 38°23' E 015°39'813.8
2018-Aug-16 11:56N 38°16' E 015°41'2012.1
2018-Aug-16 10:15N 37°56' E 015°38'36415.6
2018-Aug-15 10:55N 36°25' E 023°01'  
2018-Aug-12 22:04N 33°08' E 034°29'216.2
2018-Aug-12 21:55N 33°05' E 034°29'715.6
2018-Aug-12 21:28N 32°58' E 034°29'715.9
2018-Aug-12 21:00N 32°58' E 034°38'815.3
2018-Aug-12 20:30N 32°57' E 034°47'816.0
2018-Aug-12 19:59N 32°53' E 034°56'5 0.7
2018-Aug-12 12:30N 32°50' E 035°01'3 5.1
2018-Aug-12 11:59N 32°52' E 034°59'816.8
2018-Aug-12 11:29N 32°53' E 034°49'613.3
2018-Aug-12 11:01N 32°46' E 034°48'917.9
2018-Aug-12 10:30N 32°38' E 034°46'918.4
2018-Aug-12 10:00N 32°29' E 034°43'918.2
2018-Aug-12 09:31N 32°20' E 034°40'918.1
2018-Aug-12 09:00N 32°11' E 034°37'21 2.4
2018-Aug-11 23:53N 31°50' E 034°39'0 0.0
2018-Aug-11 23:26N 31°50' E 034°39'0 0.0
2018-Aug-11 22:56N 31°50' E 034°39'0 0.0
2018-Aug-11 15:35N 31°50' E 034°39'0 0.0
2018-Aug-11 15:05N 31°50' E 034°39'0 0.0
2018-Aug-11 14:50N 31°50' E 034°39'0 0.0
2018-Aug-11 14:29N 31°50' E 034°39'0 0.0
2018-Aug-11 13:59N 31°50' E 034°39'0 0.0
2018-Aug-11 13:29N 31°50' E 034°39'0 0.0
2018-Aug-11 12:59N 31°50' E 034°39'0 0.0
2018-Aug-11 12:29N 31°50' E 034°39'0 0.0
2018-Aug-11 11:59N 31°50' E 034°39'0 0.0
2018-Aug-11 11:29N 31°50' E 034°39'0 0.0
2018-Aug-11 10:59N 31°50' E 034°39'0 0.0
2018-Aug-11 10:29N 31°50' E 034°39'18 3.5
2018-Aug-11 05:25N 31°57' E 034°19'  
Track history (hours):
 
Tides and Currents Weather Stations Pressure Air Temp Water Temp Dewpoint Dewpoint Depression Visibility Wind Speed Wind Dir Waves Ship Positions

Rachel Borchard

Last reported at 2018-Aug-21 01:59 UTC. Time now 2018-Aug-21 03:56 UTC.
Position N 35°58' W 006°15'.

Length 157 m; draft 8.9 m.

Type: Ship. MMSI: 538005064.

Date/timePositionNaut miles runAvg speedWind from/ knotsBaromVisibWave heightAir tempDewpointWater temp
2018-Aug-21 01:59N 35°58' W 006°15'815.5
2018-Aug-21 01:30N 35°58' W 006°06'1016.1
2018-Aug-21 00:53N 35°58' W 005°54'615.7
2018-Aug-21 00:30N 35°58' W 005°46'714.8
2018-Aug-21 00:04N 35°58' W 005°38'114.4
2018-Aug-21 00:01N 35°58' W 005°37'714.6
2018-Aug-20 23:30N 35°60' W 005°28'714.7
2018-Aug-20 23:03N 36°02' W 005°21'114.7
2018-Aug-20 23:00N 36°02' W 005°20'21814.9
2018-Aug-20 08:22N 37°15' W 001°03'516.1
2018-Aug-20 08:03N 37°18' W 000°58'115.5
2018-Aug-20 08:00N 37°18' W 000°58'816.1
2018-Aug-20 07:30N 37°24' W 000°50'716.3
2018-Aug-20 07:03N 37°28' W 000°43'116.1
2018-Aug-20 07:00N 37°29' W 000°42'816.0
2018-Aug-20 06:30N 37°34' W 000°34'715.7
2018-Aug-20 06:03N 37°40' W 000°29'116.1
2018-Aug-20 06:00N 37°40' W 000°28'815.7
2018-Aug-20 05:30N 37°47' W 000°23'715.9
2018-Aug-20 05:03N 37°53' W 000°18'115.4
2018-Aug-20 05:00N 37°53' W 000°17'415.4
2018-Aug-20 04:46N 37°56' W 000°15'415.4
2018-Aug-20 04:30N 38°00' W 000°12'2516.0
2018-Aug-20 02:56N 38°21' E 000°06'2815.8
2018-Aug-20 01:08N 38°46' E 000°23'7015.8
2018-Aug-19 20:44N 39°54' E 000°07'263 8.9
2018-Aug-18 15:02N 40°49' E 005°45'014.7
2018-Aug-18 15:01N 40°49' E 005°45'7414.5
2018-Aug-18 09:52N 41°04' E 007°22'615.0
2018-Aug-18 09:29N 41°05' E 007°29'715.0
2018-Aug-18 09:00N 41°07' E 007°39'1115.0
2018-Aug-18 08:15N 41°09' E 007°53'415.0
2018-Aug-18 07:59N 41°09' E 007°59'815.0
2018-Aug-18 07:28N 41°11' E 008°09'915.5
2018-Aug-18 06:52N 41°13' E 008°21'615.6
2018-Aug-18 06:30N 41°14' E 008°28'815.6
2018-Aug-18 06:00N 41°15' E 008°38'815.7
2018-Aug-18 05:30N 41°17' E 008°49'816.3
2018-Aug-18 05:01N 41°19' E 008°59'12015.0
2018-Aug-17 21:01N 41°01' E 011°36'014.6
2018-Aug-17 21:00N 41°00' E 011°36'7515.4
2018-Aug-17 16:05N 40°42' E 013°13'115.1
2018-Aug-17 15:59N 40°42' E 013°15'715.0
2018-Aug-17 15:30N 40°40' E 013°24'714.9
2018-Aug-17 15:01N 40°38' E 013°34'815.1
2018-Aug-17 14:30N 40°36' E 013°43'1515.5
2018-Aug-17 13:30N 40°32' E 014°03'815.1
2018-Aug-17 13:01N 40°31' E 014°13'815.2
2018-Aug-17 12:31N 40°32' E 014°23'815.1
2018-Aug-17 12:00N 40°35' E 014°32'814.9
2018-Aug-17 11:30N 40°37' E 014°42'20 1.3
2018-Aug-16 20:54N 40°18' E 014°45'614.3
2018-Aug-16 20:28N 40°11' E 014°46'714.6
2018-Aug-16 20:00N 40°05' E 014°50'7614.5
2018-Aug-16 14:45N 38°54' E 015°24'414.3
2018-Aug-16 14:29N 38°50' E 015°26'714.6
2018-Aug-16 14:00N 38°44' E 015°29'814.4
2018-Aug-16 13:27N 38°36' E 015°33'614.2
2018-Aug-16 13:00N 38°30' E 015°35'714.2
2018-Aug-16 12:30N 38°23' E 015°39'813.8
2018-Aug-16 11:56N 38°16' E 015°41'2012.1
2018-Aug-16 10:15N 37°56' E 015°38'36415.6
2018-Aug-15 10:55N 36°25' E 023°01'  
2018-Aug-12 22:04N 33°08' E 034°29'216.2
2018-Aug-12 21:55N 33°05' E 034°29'715.6
2018-Aug-12 21:28N 32°58' E 034°29'715.9
2018-Aug-12 21:00N 32°58' E 034°38'815.3
2018-Aug-12 20:30N 32°57' E 034°47'816.0
2018-Aug-12 19:59N 32°53' E 034°56'5 0.7
2018-Aug-12 12:30N 32°50' E 035°01'3 5.1
2018-Aug-12 11:59N 32°52' E 034°59'816.8
2018-Aug-12 11:29N 32°53' E 034°49'613.3
2018-Aug-12 11:01N 32°46' E 034°48'917.9
2018-Aug-12 10:30N 32°38' E 034°46'918.4
2018-Aug-12 10:00N 32°29' E 034°43'918.2
2018-Aug-12 09:31N 32°20' E 034°40'918.1
2018-Aug-12 09:00N 32°11' E 034°37'21 2.4
2018-Aug-11 23:53N 31°50' E 034°39'0 0.0
2018-Aug-11 23:26N 31°50' E 034°39'0 0.0
2018-Aug-11 22:56N 31°50' E 034°39'0 0.0
2018-Aug-11 15:35N 31°50' E 034°39'0 0.0
2018-Aug-11 15:05N 31°50' E 034°39'0 0.0
2018-Aug-11 14:50N 31°50' E 034°39'0 0.0
2018-Aug-11 14:29N 31°50' E 034°39'0 0.0
2018-Aug-11 13:59N 31°50' E 034°39'0 0.0
2018-Aug-11 13:29N 31°50' E 034°39'0 0.0
2018-Aug-11 12:59N 31°50' E 034°39'0 0.0
2018-Aug-11 12:29N 31°50' E 034°39'0 0.0
2018-Aug-11 11:59N 31°50' E 034°39'0 0.0
2018-Aug-11 11:29N 31°50' E 034°39'0 0.0
2018-Aug-11 10:59N 31°50' E 034°39'0 0.0
2018-Aug-11 10:29N 31°50' E 034°39'18 3.5
2018-Aug-11 05:25N 31°57' E 034°19'  

Dump ship's entire track history